sensor_id;sensor_type;location;lat;lon;timestamp;temperature;humidity
29813;DHT22;16707;48.106;11.548;2024-02-26T00:01:44;0.90;99.90
29813;DHT22;16707;48.106;11.548;2024-02-26T00:04:13;0.90;99.90
29813;DHT22;16707;48.106;11.548;2024-02-26T00:06:39;0.90;99.90
29813;DHT22;16707;48.106;11.548;2024-02-26T00:09:06;0.80;99.90
29813;DHT22;16707;48.106;11.548;2024-02-26T00:11:33;0.80;99.90
29813;DHT22;16707;48.106;11.548;2024-02-26T00:14:00;0.90;99.90
29813;DHT22;16707;48.106;11.548;2024-02-26T00:16:27;0.90;99.90
29813;DHT22;16707;48.106;11.548;2024-02-26T00:18:53;0.80;99.90
29813;DHT22;16707;48.106;11.548;2024-02-26T00:21:21;0.80;99.90
29813;DHT22;16707;48.106;11.548;2024-02-26T00:23:49;0.80;99.90
29813;DHT22;16707;48.106;11.548;2024-02-26T00:26:15;0.80;99.90
29813;DHT22;16707;48.106;11.548;2024-02-26T00:28:42;0.80;99.90
29813;DHT22;16707;48.106;11.548;2024-02-26T00:31:09;0.80;99.90
29813;DHT22;16707;48.106;11.548;2024-02-26T00:33:37;0.80;99.90
29813;DHT22;16707;48.106;11.548;2024-02-26T00:36:03;0.70;99.90
29813;DHT22;16707;48.106;11.548;2024-02-26T00:38:32;0.80;99.90
29813;DHT22;16707;48.106;11.548;2024-02-26T00:40:59;0.80;99.90
29813;DHT22;16707;48.106;11.548;2024-02-26T00:43:25;0.80;99.90
29813;DHT22;16707;48.106;11.548;2024-02-26T00:45:52;0.70;99.90
29813;DHT22;16707;48.106;11.548;2024-02-26T00:48:19;0.70;99.90
29813;DHT22;16707;48.106;11.548;2024-02-26T00:50:46;0.60;99.90
29813;DHT22;16707;48.106;11.548;2024-02-26T00:53:13;0.60;99.90
29813;DHT22;16707;48.106;11.548;2024-02-26T00:55:41;0.60;99.90
29813;DHT22;16707;48.106;11.548;2024-02-26T00:58:07;0.60;99.90
29813;DHT22;16707;48.106;11.548;2024-02-26T01:00:34;0.50;99.90
29813;DHT22;16707;48.106;11.548;2024-02-26T01:03:01;0.50;99.90
29813;DHT22;16707;48.106;11.548;2024-02-26T01:05:29;0.50;99.90
29813;DHT22;16707;48.106;11.548;2024-02-26T01:07:55;0.40;99.90
29813;DHT22;16707;48.106;11.548;2024-02-26T01:10:22;0.40;99.90
29813;DHT22;16707;48.106;11.548;2024-02-26T01:12:50;0.40;99.90
29813;DHT22;16707;48.106;11.548;2024-02-26T01:15:17;0.50;99.90
29813;DHT22;16707;48.106;11.548;2024-02-26T01:17:47;0.40;99.90
29813;DHT22;16707;48.106;11.548;2024-02-26T01:20:14;0.40;99.90
29813;DHT22;16707;48.106;11.548;2024-02-26T01:22:40;0.40;99.90
29813;DHT22;16707;48.106;11.548;2024-02-26T01:25:07;0.30;99.90
29813;DHT22;16707;48.106;11.548;2024-02-26T01:27:34;0.30;99.90
29813;DHT22;16707;48.106;11.548;2024-02-26T01:30:03;0.30;99.90
29813;DHT22;16707;48.106;11.548;2024-02-26T01:32:30;0.30;99.90
29813;DHT22;16707;48.106;11.548;2024-02-26T01:34:57;0.20;99.90
29813;DHT22;16707;48.106;11.548;2024-02-26T01:37:23;0.40;99.90
29813;DHT22;16707;48.106;11.548;2024-02-26T01:39:51;0.30;99.90
29813;DHT22;16707;48.106;11.548;2024-02-26T01:42:18;0.20;99.90
29813;DHT22;16707;48.106;11.548;2024-02-26T01:44:44;0.10;99.90
29813;DHT22;16707;48.106;11.548;2024-02-26T01:47:12;0.10;99.90
29813;DHT22;16707;48.106;11.548;2024-02-26T01:49:39;0.20;99.90
29813;DHT22;16707;48.106;11.548;2024-02-26T01:52:07;0.10;99.90
29813;DHT22;16707;48.106;11.548;2024-02-26T01:54:35;0.10;99.90
29813;DHT22;16707;48.106;11.548;2024-02-26T01:57:03;0.10;99.90
29813;DHT22;16707;48.106;11.548;2024-02-26T01:59:30;0.20;99.90
29813;DHT22;16707;48.106;11.548;2024-02-26T02:01:57;0.20;99.90
29813;DHT22;16707;48.106;11.548;2024-02-26T02:04:26;0.10;99.90
29813;DHT22;16707;48.106;11.548;2024-02-26T02:06:53;0.20;99.90
29813;DHT22;16707;48.106;11.548;2024-02-26T02:09:20;0.20;99.90
29813;DHT22;16707;48.106;11.548;2024-02-26T02:11:48;0.10;99.90
29813;DHT22;16707;48.106;11.548;2024-02-26T02:14:15;0.00;99.90
29813;DHT22;16707;48.106;11.548;2024-02-26T02:16:41;-0.10;99.90
29813;DHT22;16707;48.106;11.548;2024-02-26T02:19:08;0.00;99.90
29813;DHT22;16707;48.106;11.548;2024-02-26T02:21:36;0.10;99.90
29813;DHT22;16707;48.106;11.548;2024-02-26T02:24:03;0.10;99.90
29813;DHT22;16707;48.106;11.548;2024-02-26T02:26:30;0.00;99.90
29813;DHT22;16707;48.106;11.548;2024-02-26T02:28:57;0.00;99.90
29813;DHT22;16707;48.106;11.548;2024-02-26T02:31:24;0.00;99.90
29813;DHT22;16707;48.106;11.548;2024-02-26T02:33:51;-0.10;99.90
29813;DHT22;16707;48.106;11.548;2024-02-26T02:36:17;0.00;99.90
29813;DHT22;16707;48.106;11.548;2024-02-26T02:38:49;0.10;99.90
29813;DHT22;16707;48.106;11.548;2024-02-26T02:41:16;0.10;99.90
29813;DHT22;16707;48.106;11.548;2024-02-26T02:43:43;0.10;99.90
29813;DHT22;16707;48.106;11.548;2024-02-26T02:46:10;0.20;99.90
29813;DHT22;16707;48.106;11.548;2024-02-26T02:48:37;0.20;99.90
29813;DHT22;16707;48.106;11.548;2024-02-26T02:51:03;0.10;99.90
29813;DHT22;16707;48.106;11.548;2024-02-26T02:53:31;0.10;99.90
29813;DHT22;16707;48.106;11.548;2024-02-26T02:55:59;0.10;99.90
29813;DHT22;16707;48.106;11.548;2024-02-26T02:58:25;0.10;99.90
29813;DHT22;16707;48.106;11.548;2024-02-26T03:00:52;0.10;99.90
29813;DHT22;16707;48.106;11.548;2024-02-26T03:03:20;0.00;99.90
29813;DHT22;16707;48.106;11.548;2024-02-26T03:05:49;-0.10;99.90
29813;DHT22;16707;48.106;11.548;2024-02-26T03:08:16;0.00;99.90
29813;DHT22;16707;48.106;11.548;2024-02-26T03:10:44;-0.10;99.90
29813;DHT22;16707;48.106;11.548;2024-02-26T03:13:12;-0.20;99.90
29813;DHT22;16707;48.106;11.548;2024-02-26T03:15:39;-0.20;99.90
29813;DHT22;16707;48.106;11.548;2024-02-26T03:18:06;-0.10;99.90
29813;DHT22;16707;48.106;11.548;2024-02-26T03:20:33;-0.10;99.90
29813;DHT22;16707;48.106;11.548;2024-02-26T03:22:59;0.00;99.90
29813;DHT22;16707;48.106;11.548;2024-02-26T03:25:26;0.00;99.90
29813;DHT22;16707;48.106;11.548;2024-02-26T03:27:53;0.00;99.90
29813;DHT22;16707;48.106;11.548;2024-02-26T03:30:21;0.20;99.90
29813;DHT22;16707;48.106;11.548;2024-02-26T03:32:47;0.20;99.90
29813;DHT22;16707;48.106;11.548;2024-02-26T03:35:14;0.30;99.90
29813;DHT22;16707;48.106;11.548;2024-02-26T03:37:41;0.30;99.90
29813;DHT22;16707;48.106;11.548;2024-02-26T03:40:08;0.40;99.90
29813;DHT22;16707;48.106;11.548;2024-02-26T03:42:35;0.40;99.90
29813;DHT22;16707;48.106;11.548;2024-02-26T03:45:01;0.50;99.90
29813;DHT22;16707;48.106;11.548;2024-02-26T03:47:30;0.50;99.90
29813;DHT22;16707;48.106;11.548;2024-02-26T03:49:56;0.50;99.90
29813;DHT22;16707;48.106;11.548;2024-02-26T03:52:24;0.50;99.90
29813;DHT22;16707;48.106;11.548;2024-02-26T03:54:51;0.40;99.90
29813;DHT22;16707;48.106;11.548;2024-02-26T03:57:18;0.30;99.90
29813;DHT22;16707;48.106;11.548;2024-02-26T03:59:44;0.40;99.90
29813;DHT22;16707;48.106;11.548;2024-02-26T04:02:11;0.30;99.90
29813;DHT22;16707;48.106;11.548;2024-02-26T04:04:39;0.40;99.90
29813;DHT22;16707;48.106;11.548;2024-02-26T04:07:06;0.30;99.90
29813;DHT22;16707;48.106;11.548;2024-02-26T04:09:32;0.40;99.90
29813;DHT22;16707;48.106;11.548;2024-02-26T04:11:59;0.40;99.90
29813;DHT22;16707;48.106;11.548;2024-02-26T04:14:26;0.50;99.90
29813;DHT22;16707;48.106;11.548;2024-02-26T04:16:53;0.60;99.90
29813;DHT22;16707;48.106;11.548;2024-02-26T04:19:20;0.50;99.90
29813;DHT22;16707;48.106;11.548;2024-02-26T04:21:48;0.60;99.90
29813;DHT22;16707;48.106;11.548;2024-02-26T04:24:14;0.60;99.90
29813;DHT22;16707;48.106;11.548;2024-02-26T04:26:41;0.60;99.90
29813;DHT22;16707;48.106;11.548;2024-02-26T04:29:08;0.60;99.90
29813;DHT22;16707;48.106;11.548;2024-02-26T04:31:34;0.70;99.90
29813;DHT22;16707;48.106;11.548;2024-02-26T04:34:01;0.60;99.90
29813;DHT22;16707;48.106;11.548;2024-02-26T04:36:28;0.60;99.90
29813;DHT22;16707;48.106;11.548;2024-02-26T04:38:56;0.60;99.90
29813;DHT22;16707;48.106;11.548;2024-02-26T04:41:23;0.50;99.90
29813;DHT22;16707;48.106;11.548;2024-02-26T04:43:50;0.40;99.90
29813;DHT22;16707;48.106;11.548;2024-02-26T04:46:17;0.30;99.90
29813;DHT22;16707;48.106;11.548;2024-02-26T04:48:44;0.20;99.90
29813;DHT22;16707;48.106;11.548;2024-02-26T04:51:12;0.10;99.90
29813;DHT22;16707;48.106;11.548;2024-02-26T04:53:38;0.10;99.90
29813;DHT22;16707;48.106;11.548;2024-02-26T04:56:06;0.00;99.90
29813;DHT22;16707;48.106;11.548;2024-02-26T04:58:33;-0.10;99.90
29813;DHT22;16707;48.106;11.548;2024-02-26T05:01:00;-0.10;99.90
29813;DHT22;16707;48.106;11.548;2024-02-26T05:03:27;-0.20;99.90
29813;DHT22;16707;48.106;11.548;2024-02-26T05:05:54;-0.20;99.90
29813;DHT22;16707;48.106;11.548;2024-02-26T05:08:22;-0.20;99.90
29813;DHT22;16707;48.106;11.548;2024-02-26T05:10:49;-0.10;99.90
29813;DHT22;16707;48.106;11.548;2024-02-26T05:13:17;0.00;99.90
29813;DHT22;16707;48.106;11.548;2024-02-26T05:15:44;0.00;99.90
29813;DHT22;16707;48.106;11.548;2024-02-26T05:18:14;0.20;99.90
29813;DHT22;16707;48.106;11.548;2024-02-26T05:20:41;0.60;99.90
29813;DHT22;16707;48.106;11.548;2024-02-26T05:23:10;0.90;99.90
29813;DHT22;16707;48.106;11.548;2024-02-26T05:25:37;0.70;99.90
29813;DHT22;16707;48.106;11.548;2024-02-26T05:28:04;0.60;99.90
29813;DHT22;16707;48.106;11.548;2024-02-26T05:30:32;0.50;99.90
29813;DHT22;16707;48.106;11.548;2024-02-26T05:32:59;0.40;99.90
29813;DHT22;16707;48.106;11.548;2024-02-26T05:35:25;0.40;99.90
29813;DHT22;16707;48.106;11.548;2024-02-26T05:37:52;0.30;99.90
29813;DHT22;16707;48.106;11.548;2024-02-26T05:40:19;0.30;99.90
29813;DHT22;16707;48.106;11.548;2024-02-26T05:42:46;0.30;99.90
29813;DHT22;16707;48.106;11.548;2024-02-26T05:45:14;0.30;99.90
29813;DHT22;16707;48.106;11.548;2024-02-26T05:47:42;0.40;99.90
29813;DHT22;16707;48.106;11.548;2024-02-26T05:50:09;0.40;99.90
29813;DHT22;16707;48.106;11.548;2024-02-26T05:52:36;0.50;99.90
29813;DHT22;16707;48.106;11.548;2024-02-26T05:55:04;0.60;99.90
29813;DHT22;16707;48.106;11.548;2024-02-26T05:57:30;0.80;99.90
29813;DHT22;16707;48.106;11.548;2024-02-26T05:59:57;0.90;99.90
29813;DHT22;16707;48.106;11.548;2024-02-26T06:02:26;1.10;99.90
29813;DHT22;16707;48.106;11.548;2024-02-26T06:04:54;1.20;99.90
29813;DHT22;16707;48.106;11.548;2024-02-26T06:07:20;1.30;99.90
29813;DHT22;16707;48.106;11.548;2024-02-26T06:09:47;1.30;99.90
29813;DHT22;16707;48.106;11.548;2024-02-26T06:12:14;1.40;99.90
29813;DHT22;16707;48.106;11.548;2024-02-26T06:14:41;1.40;99.90
29813;DHT22;16707;48.106;11.548;2024-02-26T06:17:08;1.50;99.90
29813;DHT22;16707;48.106;11.548;2024-02-26T06:19:34;1.70;99.90
29813;DHT22;16707;48.106;11.548;2024-02-26T06:22:02;1.90;99.90
29813;DHT22;16707;48.106;11.548;2024-02-26T06:24:29;2.10;99.90
29813;DHT22;16707;48.106;11.548;2024-02-26T06:26:56;2.40;99.90
29813;DHT22;16707;48.106;11.548;2024-02-26T06:29:22;2.70;99.90
29813;DHT22;16707;48.106;11.548;2024-02-26T06:31:49;2.60;99.90
29813;DHT22;16707;48.106;11.548;2024-02-26T06:34:16;2.60;99.90
29813;DHT22;16707;48.106;11.548;2024-02-26T06:36:43;2.70;99.90
29813;DHT22;16707;48.106;11.548;2024-02-26T06:39:11;2.80;99.90
29813;DHT22;16707;48.106;11.548;2024-02-26T06:41:38;2.90;99.90
29813;DHT22;16707;48.106;11.548;2024-02-26T06:44:04;3.40;99.90
29813;DHT22;16707;48.106;11.548;2024-02-26T06:46:31;3.50;99.90
29813;DHT22;16707;48.106;11.548;2024-02-26T06:48:58;3.70;99.90
29813;DHT22;16707;48.106;11.548;2024-02-26T06:51:24;3.70;99.90
29813;DHT22;16707;48.106;11.548;2024-02-26T06:53:51;3.60;99.90
29813;DHT22;16707;48.106;11.548;2024-02-26T06:56:19;3.50;99.90
29813;DHT22;16707;48.106;11.548;2024-02-26T06:58:46;3.70;99.90
29813;DHT22;16707;48.106;11.548;2024-02-26T07:01:13;3.90;99.90
29813;DHT22;16707;48.106;11.548;2024-02-26T07:03:40;4.00;99.90
29813;DHT22;16707;48.106;11.548;2024-02-26T07:06:06;4.10;99.90
29813;DHT22;16707;48.106;11.548;2024-02-26T07:08:34;4.30;99.90
29813;DHT22;16707;48.106;11.548;2024-02-26T07:11:00;4.40;99.90
29813;DHT22;16707;48.106;11.548;2024-02-26T07:13:29;4.40;99.90
29813;DHT22;16707;48.106;11.548;2024-02-26T07:15:55;4.30;99.90
29813;DHT22;16707;48.106;11.548;2024-02-26T07:18:22;4.30;99.90
29813;DHT22;16707;48.106;11.548;2024-02-26T07:20:49;4.70;99.90
29813;DHT22;16707;48.106;11.548;2024-02-26T07:23:15;4.90;99.90
29813;DHT22;16707;48.106;11.548;2024-02-26T07:25:42;5.10;99.90
29813;DHT22;16707;48.106;11.548;2024-02-26T07:28:09;5.20;99.90
29813;DHT22;16707;48.106;11.548;2024-02-26T07:30:37;5.30;99.90
29813;DHT22;16707;48.106;11.548;2024-02-26T07:33:04;5.40;99.90
29813;DHT22;16707;48.106;11.548;2024-02-26T07:35:32;5.60;99.90
29813;DHT22;16707;48.106;11.548;2024-02-26T07:37:58;5.60;99.90
29813;DHT22;16707;48.106;11.548;2024-02-26T07:40:25;5.60;99.90
29813;DHT22;16707;48.106;11.548;2024-02-26T07:42:52;5.70;99.90
29813;DHT22;16707;48.106;11.548;2024-02-26T07:45:19;6.00;99.90
29813;DHT22;16707;48.106;11.548;2024-02-26T07:47:47;6.40;99.90
29813;DHT22;16707;48.106;11.548;2024-02-26T07:50:14;6.70;99.90
29813;DHT22;16707;48.106;11.548;2024-02-26T07:52:41;6.90;99.90
29813;DHT22;16707;48.106;11.548;2024-02-26T07:55:08;7.00;99.90
29813;DHT22;16707;48.106;11.548;2024-02-26T07:57:34;7.10;99.90
29813;DHT22;16707;48.106;11.548;2024-02-26T08:00:01;7.20;99.90
29813;DHT22;16707;48.106;11.548;2024-02-26T08:02:28;7.10;99.90
29813;DHT22;16707;48.106;11.548;2024-02-26T08:04:56;7.10;99.90
29813;DHT22;16707;48.106;11.548;2024-02-26T08:07:23;6.90;99.90
29813;DHT22;16707;48.106;11.548;2024-02-26T08:09:50;6.70;99.90
29813;DHT22;16707;48.106;11.548;2024-02-26T08:12:17;6.70;99.90
29813;DHT22;16707;48.106;11.548;2024-02-26T08:14:44;6.70;99.90
29813;DHT22;16707;48.106;11.548;2024-02-26T08:17:10;6.80;99.90
29813;DHT22;16707;48.106;11.548;2024-02-26T08:19:37;7.10;99.90
29813;DHT22;16707;48.106;11.548;2024-02-26T08:22:05;7.20;99.90
29813;DHT22;16707;48.106;11.548;2024-02-26T08:24:32;7.60;99.90
29813;DHT22;16707;48.106;11.548;2024-02-26T08:26:58;7.80;99.90
29813;DHT22;16707;48.106;11.548;2024-02-26T08:29:25;8.10;99.90
29813;DHT22;16707;48.106;11.548;2024-02-26T08:31:52;8.50;99.90
29813;DHT22;16707;48.106;11.548;2024-02-26T08:34:19;8.80;99.90
29813;DHT22;16707;48.106;11.548;2024-02-26T08:36:45;9.10;99.60
29813;DHT22;16707;48.106;11.548;2024-02-26T08:39:15;9.30;97.90
29813;DHT22;16707;48.106;11.548;2024-02-26T08:41:42;9.50;95.60
29813;DHT22;16707;48.106;11.548;2024-02-26T08:44:09;9.80;93.40
29813;DHT22;16707;48.106;11.548;2024-02-26T08:46:36;10.20;92.10
29813;DHT22;16707;48.106;11.548;2024-02-26T08:49:03;10.30;90.90
29813;DHT22;16707;48.106;11.548;2024-02-26T08:51:29;10.50;90.50
29813;DHT22;16707;48.106;11.548;2024-02-26T08:53:56;10.00;90.10
29813;DHT22;16707;48.106;11.548;2024-02-26T08:56:25;10.20;90.80
29813;DHT22;16707;48.106;11.548;2024-02-26T08:58:52;10.20;90.80
29813;DHT22;16707;48.106;11.548;2024-02-26T09:01:22;10.10;91.40
29813;DHT22;16707;48.106;11.548;2024-02-26T09:03:49;9.70;91.60
29813;DHT22;16707;48.106;11.548;2024-02-26T09:06:15;9.90;92.40
29813;DHT22;16707;48.106;11.548;2024-02-26T09:08:42;10.00;92.40
29813;DHT22;16707;48.106;11.548;2024-02-26T09:11:09;10.20;92.00
29813;DHT22;16707;48.106;11.548;2024-02-26T09:13:38;10.40;91.00
29813;DHT22;16707;48.106;11.548;2024-02-26T09:16:05;10.60;90.00
29813;DHT22;16707;48.106;11.548;2024-02-26T09:18:32;10.60;90.00
29813;DHT22;16707;48.106;11.548;2024-02-26T09:20:59;10.80;88.10
29813;DHT22;16707;48.106;11.548;2024-02-26T09:23:25;10.20;85.50
29813;DHT22;16707;48.106;11.548;2024-02-26T09:25:52;9.90;86.60
29813;DHT22;16707;48.106;11.548;2024-02-26T09:28:19;10.20;87.50
29813;DHT22;16707;48.106;11.548;2024-02-26T09:30:47;10.30;86.00
29813;DHT22;16707;48.106;11.548;2024-02-26T09:33:14;10.10;81.20
29813;DHT22;16707;48.106;11.548;2024-02-26T09:35:41;10.30;82.70
29813;DHT22;16707;48.106;11.548;2024-02-26T09:38:08;10.30;81.50
29813;DHT22;16707;48.106;11.548;2024-02-26T09:40:34;10.00;80.60
29813;DHT22;16707;48.106;11.548;2024-02-26T09:43:04;10.00;81.20
29813;DHT22;16707;48.106;11.548;2024-02-26T09:45:31;10.10;80.50
29813;DHT22;16707;48.106;11.548;2024-02-26T09:47:59;10.50;80.10
29813;DHT22;16707;48.106;11.548;2024-02-26T09:50:27;10.30;80.80
29813;DHT22;16707;48.106;11.548;2024-02-26T09:52:53;10.30;79.70
29813;DHT22;16707;48.106;11.548;2024-02-26T09:55:20;10.50;81.30
29813;DHT22;16707;48.106;11.548;2024-02-26T09:57:47;10.40;79.90
29813;DHT22;16707;48.106;11.548;2024-02-26T10:00:17;10.60;79.80
29813;DHT22;16707;48.106;11.548;2024-02-26T10:02:45;10.60;81.20
29813;DHT22;16707;48.106;11.548;2024-02-26T10:05:14;10.70;82.20
29813;DHT22;16707;48.106;11.548;2024-02-26T10:07:41;11.20;82.00
29813;DHT22;16707;48.106;11.548;2024-02-26T10:10:08;11.50;80.10
29813;DHT22;16707;48.106;11.548;2024-02-26T10:12:35;11.40;79.20
29813;DHT22;16707;48.106;11.548;2024-02-26T10:15:02;11.60;78.60
29813;DHT22;16707;48.106;11.548;2024-02-26T10:17:29;11.40;79.20
29813;DHT22;16707;48.106;11.548;2024-02-26T10:20:00;10.90;80.20
29813;DHT22;16707;48.106;11.548;2024-02-26T10:22:37;10.80;82.20
29813;DHT22;16707;48.106;11.548;2024-02-26T10:25:04;11.00;80.70
29813;DHT22;16707;48.106;11.548;2024-02-26T10:27:31;11.10;80.70
29813;DHT22;16707;48.106;11.548;2024-02-26T10:29:59;10.80;80.00
29813;DHT22;16707;48.106;11.548;2024-02-26T10:32:28;10.40;82.00
29813;DHT22;16707;48.106;11.548;2024-02-26T10:34:55;10.60;82.10
29813;DHT22;16707;48.106;11.548;2024-02-26T10:37:22;10.70;81.80
29813;DHT22;16707;48.106;11.548;2024-02-26T10:39:51;10.70;81.30
29813;DHT22;16707;48.106;11.548;2024-02-26T10:42:18;10.70;81.10
29813;DHT22;16707;48.106;11.548;2024-02-26T10:44:45;11.00;79.50
29813;DHT22;16707;48.106;11.548;2024-02-26T10:47:14;10.90;79.00
29813;DHT22;16707;48.106;11.548;2024-02-26T10:49:45;11.30;78.10
29813;DHT22;16707;48.106;11.548;2024-02-26T10:52:13;11.50;76.30
29813;DHT22;16707;48.106;11.548;2024-02-26T10:54:40;11.60;75.50
29813;DHT22;16707;48.106;11.548;2024-02-26T10:57:10;11.40;75.50
29813;DHT22;16707;48.106;11.548;2024-02-26T10:59:37;11.60;75.90
29813;DHT22;16707;48.106;11.548;2024-02-26T11:02:05;11.70;72.40
29813;DHT22;16707;48.106;11.548;2024-02-26T11:04:33;11.60;71.30
29813;DHT22;16707;48.106;11.548;2024-02-26T11:07:01;12.10;71.40
29813;DHT22;16707;48.106;11.548;2024-02-26T11:09:27;12.60;69.10
29813;DHT22;16707;48.106;11.548;2024-02-26T11:11:54;13.00;67.60
29813;DHT22;16707;48.106;11.548;2024-02-26T11:14:24;12.90;66.90
29813;DHT22;16707;48.106;11.548;2024-02-26T11:16:51;13.00;66.10
29813;DHT22;16707;48.106;11.548;2024-02-26T11:19:18;13.40;66.20
29813;DHT22;16707;48.106;11.548;2024-02-26T11:21:45;13.70;64.40
29813;DHT22;16707;48.106;11.548;2024-02-26T11:24:13;13.70;63.60
29813;DHT22;16707;48.106;11.548;2024-02-26T11:26:42;13.60;61.80
29813;DHT22;16707;48.106;11.548;2024-02-26T11:29:13;13.60;63.00
29813;DHT22;16707;48.106;11.548;2024-02-26T11:31:43;13.40;63.20
29813;DHT22;16707;48.106;11.548;2024-02-26T11:34:10;13.60;62.90
29813;DHT22;16707;48.106;11.548;2024-02-26T11:36:37;13.70;62.50
29813;DHT22;16707;48.106;11.548;2024-02-26T11:39:04;13.90;63.00
29813;DHT22;16707;48.106;11.548;2024-02-26T11:41:31;13.70;61.10
29813;DHT22;16707;48.106;11.548;2024-02-26T11:43:59;13.30;61.90
29813;DHT22;16707;48.106;11.548;2024-02-26T11:46:26;13.10;63.20
29813;DHT22;16707;48.106;11.548;2024-02-26T11:49:00;13.60;63.60
29813;DHT22;16707;48.106;11.548;2024-02-26T11:51:27;13.70;62.80
29813;DHT22;16707;48.106;11.548;2024-02-26T11:53:54;13.70;61.40
29813;DHT22;16707;48.106;11.548;2024-02-26T11:56:22;14.00;61.10
29813;DHT22;16707;48.106;11.548;2024-02-26T11:58:49;14.30;60.30
29813;DHT22;16707;48.106;11.548;2024-02-26T12:01:35;14.30;59.70
29813;DHT22;16707;48.106;11.548;2024-02-26T12:04:03;14.60;59.70
29813;DHT22;16707;48.106;11.548;2024-02-26T12:06:31;14.50;59.50
29813;DHT22;16707;48.106;11.548;2024-02-26T12:08:58;13.90;59.40
29813;DHT22;16707;48.106;11.548;2024-02-26T12:11:27;13.90;58.70
29813;DHT22;16707;48.106;11.548;2024-02-26T12:13:54;13.70;58.80
29813;DHT22;16707;48.106;11.548;2024-02-26T12:16:34;14.00;60.60
29813;DHT22;16707;48.106;11.548;2024-02-26T12:19:01;14.00;59.70
29813;DHT22;16707;48.106;11.548;2024-02-26T12:21:30;13.70;58.50
29813;DHT22;16707;48.106;11.548;2024-02-26T12:24:06;13.50;60.10
29813;DHT22;16707;48.106;11.548;2024-02-26T12:26:33;13.60;60.30
29813;DHT22;16707;48.106;11.548;2024-02-26T12:28:59;13.20;59.30
29813;DHT22;16707;48.106;11.548;2024-02-26T12:31:26;13.10;59.30
29813;DHT22;16707;48.106;11.548;2024-02-26T12:33:54;13.40;59.30
29813;DHT22;16707;48.106;11.548;2024-02-26T12:36:21;13.70;59.30
29813;DHT22;16707;48.106;11.548;2024-02-26T12:38:49;13.80;57.10
29813;DHT22;16707;48.106;11.548;2024-02-26T12:41:17;13.80;56.10
29813;DHT22;16707;48.106;11.548;2024-02-26T12:43:43;13.50;56.80
29813;DHT22;16707;48.106;11.548;2024-02-26T12:46:10;13.30;57.50
29813;DHT22;16707;48.106;11.548;2024-02-26T12:48:38;12.70;58.20
29813;DHT22;16707;48.106;11.548;2024-02-26T12:51:04;12.50;58.70
29813;DHT22;16707;48.106;11.548;2024-02-26T12:53:31;12.50;58.80
29813;DHT22;16707;48.106;11.548;2024-02-26T12:55:59;12.80;58.30
29813;DHT22;16707;48.106;11.548;2024-02-26T12:58:26;13.10;58.20
29813;DHT22;16707;48.106;11.548;2024-02-26T13:00:53;13.70;59.10
29813;DHT22;16707;48.106;11.548;2024-02-26T13:03:20;13.90;59.00
29813;DHT22;16707;48.106;11.548;2024-02-26T13:05:47;14.30;58.40
29813;DHT22;16707;48.106;11.548;2024-02-26T13:08:17;14.20;57.50
29813;DHT22;16707;48.106;11.548;2024-02-26T13:10:45;13.80;58.20
29813;DHT22;16707;48.106;11.548;2024-02-26T13:13:15;13.60;58.90
29813;DHT22;16707;48.106;11.548;2024-02-26T13:15:42;13.80;59.80
29813;DHT22;16707;48.106;11.548;2024-02-26T13:18:10;13.90;59.90
29813;DHT22;16707;48.106;11.548;2024-02-26T13:20:37;13.80;63.00
29813;DHT22;16707;48.106;11.548;2024-02-26T13:23:06;13.60;63.40
29813;DHT22;16707;48.106;11.548;2024-02-26T13:25:33;13.40;62.20
29813;DHT22;16707;48.106;11.548;2024-02-26T13:28:06;13.50;61.40
29813;DHT22;16707;48.106;11.548;2024-02-26T13:30:35;13.30;60.80
29813;DHT22;16707;48.106;11.548;2024-02-26T13:33:07;13.60;61.10
29813;DHT22;16707;48.106;11.548;2024-02-26T13:35:34;13.50;62.20
29813;DHT22;16707;48.106;11.548;2024-02-26T13:38:01;13.50;63.00
29813;DHT22;16707;48.106;11.548;2024-02-26T13:40:29;13.50;64.80
29813;DHT22;16707;48.106;11.548;2024-02-26T13:42:55;13.40;66.20
29813;DHT22;16707;48.106;11.548;2024-02-26T13:45:22;13.30;66.10
29813;DHT22;16707;48.106;11.548;2024-02-26T13:47:50;13.10;66.60
29813;DHT22;16707;48.106;11.548;2024-02-26T13:50:17;13.10;65.30
29813;DHT22;16707;48.106;11.548;2024-02-26T13:52:48;13.10;65.00
29813;DHT22;16707;48.106;11.548;2024-02-26T13:55:18;12.90;65.90
29813;DHT22;16707;48.106;11.548;2024-02-26T13:57:47;12.80;66.30
29813;DHT22;16707;48.106;11.548;2024-02-26T14:00:14;12.60;67.20
29813;DHT22;16707;48.106;11.548;2024-02-26T14:02:41;12.80;65.10
29813;DHT22;16707;48.106;11.548;2024-02-26T14:05:09;12.90;63.60
29813;DHT22;16707;48.106;11.548;2024-02-26T14:07:36;13.00;62.40
29813;DHT22;16707;48.106;11.548;2024-02-26T14:10:03;12.80;63.60
29813;DHT22;16707;48.106;11.548;2024-02-26T14:12:30;12.50;64.00
29813;DHT22;16707;48.106;11.548;2024-02-26T14:14:57;12.40;65.00
29813;DHT22;16707;48.106;11.548;2024-02-26T14:17:25;12.40;66.00
29813;DHT22;16707;48.106;11.548;2024-02-26T14:19:52;12.60;64.90
29813;DHT22;16707;48.106;11.548;2024-02-26T14:22:21;12.80;64.30
29813;DHT22;16707;48.106;11.548;2024-02-26T14:24:47;12.90;63.70
29813;DHT22;16707;48.106;11.548;2024-02-26T14:27:14;12.70;65.50
29813;DHT22;16707;48.106;11.548;2024-02-26T14:29:42;12.60;65.60
29813;DHT22;16707;48.106;11.548;2024-02-26T14:32:09;12.40;66.20
29813;DHT22;16707;48.106;11.548;2024-02-26T14:34:36;12.20;67.70
29813;DHT22;16707;48.106;11.548;2024-02-26T14:37:03;12.30;68.60
29813;DHT22;16707;48.106;11.548;2024-02-26T14:39:32;12.30;69.10
29813;DHT22;16707;48.106;11.548;2024-02-26T14:41:59;12.20;69.50
29813;DHT22;16707;48.106;11.548;2024-02-26T14:44:26;12.20;71.00
29813;DHT22;16707;48.106;11.548;2024-02-26T14:46:53;12.30;70.50
29813;DHT22;16707;48.106;11.548;2024-02-26T14:49:22;12.20;73.50
29813;DHT22;16707;48.106;11.548;2024-02-26T14:51:49;11.90;74.20
29813;DHT22;16707;48.106;11.548;2024-02-26T14:54:16;11.80;75.30
29813;DHT22;16707;48.106;11.548;2024-02-26T14:56:44;11.90;76.30
29813;DHT22;16707;48.106;11.548;2024-02-26T14:59:11;11.80;75.90
29813;DHT22;16707;48.106;11.548;2024-02-26T15:01:38;11.80;76.20
29813;DHT22;16707;48.106;11.548;2024-02-26T15:04:04;11.60;77.80
29813;DHT22;16707;48.106;11.548;2024-02-26T15:06:31;11.40;78.90
29813;DHT22;16707;48.106;11.548;2024-02-26T15:09:00;11.40;79.50
29813;DHT22;16707;48.106;11.548;2024-02-26T15:11:28;11.40;79.00
29813;DHT22;16707;48.106;11.548;2024-02-26T15:13:56;11.40;79.90
29813;DHT22;16707;48.106;11.548;2024-02-26T15:16:23;11.30;80.70
29813;DHT22;16707;48.106;11.548;2024-02-26T15:18:50;11.20;81.60
29813;DHT22;16707;48.106;11.548;2024-02-26T15:21:17;11.30;81.50
29813;DHT22;16707;48.106;11.548;2024-02-26T15:23:44;11.20;81.50
29813;DHT22;16707;48.106;11.548;2024-02-26T15:26:11;11.10;81.60